sensor_id;sensor_type;location;lat;lon;timestamp;P1;durP1;ratioP1;P2;durP2;ratioP2
15843;SDS011;50807;52.436;13.346;2023-08-07T00:00:29;1.80;;;1.70;;
15843;SDS011;50807;52.436;13.346;2023-08-07T00:01:01;1.57;;;1.47;;
15843;SDS011;50807;52.436;13.346;2023-08-07T00:01:32;3.33;;;1.50;;
15843;SDS011;50807;52.436;13.346;2023-08-07T00:02:02;1.73;;;1.47;;
15843;SDS011;50807;52.436;13.346;2023-08-07T00:02:34;1.52;;;1.42;;
15843;SDS011;50807;52.436;13.346;2023-08-07T00:03:06;2.08;;;1.50;;
15843;SDS011;50807;52.436;13.346;2023-08-07T00:03:37;1.83;;;1.30;;
15843;SDS011;50807;52.436;13.346;2023-08-07T00:04:07;1.40;;;1.30;;
15843;SDS011;50807;52.436;13.346;2023-08-07T00:04:38;1.63;;;1.40;;
15843;SDS011;50807;52.436;13.346;2023-08-07T00:05:09;3.83;;;1.30;;
15843;SDS011;50807;52.436;13.346;2023-08-07T00:05:41;1.30;;;1.20;;
15843;SDS011;50807;52.436;13.346;2023-08-07T00:06:15;2.80;;;1.65;;
15843;SDS011;50807;52.436;13.346;2023-08-07T00:06:46;2.73;;;1.43;;
15843;SDS011;50807;52.436;13.346;2023-08-07T00:07:16;1.30;;;1.20;;
15843;SDS011;50807;52.436;13.346;2023-08-07T00:07:49;1.95;;;1.40;;
15843;SDS011;50807;52.436;13.346;2023-08-07T00:08:20;1.77;;;1.33;;
15843;SDS011;50807;52.436;13.346;2023-08-07T00:08:50;2.70;;;1.30;;
15843;SDS011;50807;52.436;13.346;2023-08-07T00:09:21;2.13;;;1.47;;
15843;SDS011;50807;52.436;13.346;2023-08-07T00:09:55;1.73;;;1.63;;
15843;SDS011;50807;52.436;13.346;2023-08-07T00:10:25;1.60;;;1.50;;
15843;SDS011;50807;52.436;13.346;2023-08-07T00:11:03;1.97;;;1.70;;
15843;SDS011;50807;52.436;13.346;2023-08-07T00:11:35;1.55;;;1.45;;
15843;SDS011;50807;52.436;13.346;2023-08-07T00:12:07;1.50;;;1.40;;
15843;SDS011;50807;52.436;13.346;2023-08-07T00:12:39;1.93;;;1.70;;
15843;SDS011;50807;52.436;13.346;2023-08-07T00:13:10;1.43;;;1.33;;
15843;SDS011;50807;52.436;13.346;2023-08-07T00:13:41;1.50;;;1.40;;
15843;SDS011;50807;52.436;13.346;2023-08-07T00:14:12;1.75;;;1.60;;
15843;SDS011;50807;52.436;13.346;2023-08-07T00:14:43;1.60;;;1.50;;
15843;SDS011;50807;52.436;13.346;2023-08-07T00:15:17;1.70;;;1.43;;
15843;SDS011;50807;52.436;13.346;2023-08-07T00:15:49;1.75;;;1.65;;
15843;SDS011;50807;52.436;13.346;2023-08-07T00:16:19;1.60;;;1.40;;
15843;SDS011;50807;52.436;13.346;2023-08-07T00:16:50;1.70;;;1.60;;
15843;SDS011;50807;52.436;13.346;2023-08-07T00:17:21;1.50;;;1.40;;
15843;SDS011;50807;52.436;13.346;2023-08-07T00:17:53;1.80;;;1.60;;
15843;SDS011;50807;52.436;13.346;2023-08-07T00:18:24;1.63;;;1.53;;
15843;SDS011;50807;52.436;13.346;2023-08-07T00:18:55;1.57;;;1.47;;
15843;SDS011;50807;52.436;13.346;2023-08-07T00:19:26;1.98;;;1.77;;
15843;SDS011;50807;52.436;13.346;2023-08-07T00:19:58;2.55;;;1.50;;
15843;SDS011;50807;52.436;13.346;2023-08-07T00:20:29;3.20;;;1.70;;
15843;SDS011;50807;52.436;13.346;2023-08-07T00:20:59;1.50;;;1.40;;
15843;SDS011;50807;52.436;13.346;2023-08-07T00:21:31;1.75;;;1.65;;
15843;SDS011;50807;52.436;13.346;2023-08-07T00:22:02;2.23;;;1.97;;
15843;SDS011;50807;52.436;13.346;2023-08-07T00:22:33;2.35;;;1.80;;
15843;SDS011;50807;52.436;13.346;2023-08-07T00:23:04;2.00;;;1.50;;
15843;SDS011;50807;52.436;13.346;2023-08-07T00:23:36;1.50;;;1.40;;
15843;SDS011;50807;52.436;13.346;2023-08-07T00:24:07;1.70;;;1.43;;
15843;SDS011;50807;52.436;13.346;2023-08-07T00:24:37;1.43;;;1.33;;
15843;SDS011;50807;52.436;13.346;2023-08-07T00:25:11;1.77;;;1.58;;
15843;SDS011;50807;52.436;13.346;2023-08-07T00:25:41;4.13;;;1.70;;
15843;SDS011;50807;52.436;13.346;2023-08-07T00:26:12;3.87;;;1.60;;
15843;SDS011;50807;52.436;13.346;2023-08-07T00:26:43;1.50;;;1.40;;
15843;SDS011;50807;52.436;13.346;2023-08-07T00:27:15;1.65;;;1.55;;
15843;SDS011;50807;52.436;13.346;2023-08-07T00:27:46;4.32;;;1.63;;
15843;SDS011;50807;52.436;13.346;2023-08-07T00:28:17;1.87;;;1.77;;
15843;SDS011;50807;52.436;13.346;2023-08-07T00:28:48;1.67;;;1.57;;
15843;SDS011;50807;52.436;13.346;2023-08-07T00:29:19;1.70;;;1.60;;
15843;SDS011;50807;52.436;13.346;2023-08-07T00:29:50;3.07;;;1.50;;
15843;SDS011;50807;52.436;13.346;2023-08-07T00:30:21;1.80;;;1.70;;
15843;SDS011;50807;52.436;13.346;2023-08-07T00:30:53;1.80;;;1.58;;
15843;SDS011;50807;52.436;13.346;2023-08-07T00:31:24;2.83;;;1.73;;
15843;SDS011;50807;52.436;13.346;2023-08-07T00:31:55;1.77;;;1.63;;
15843;SDS011;50807;52.436;13.346;2023-08-07T00:32:27;1.83;;;1.63;;
15843;SDS011;50807;52.436;13.346;2023-08-07T00:32:57;2.17;;;1.40;;
15843;SDS011;50807;52.436;13.346;2023-08-07T00:33:28;1.90;;;1.50;;
15843;SDS011;50807;52.436;13.346;2023-08-07T00:34:00;1.60;;;1.50;;
15843;SDS011;50807;52.436;13.346;2023-08-07T00:34:32;1.80;;;1.60;;
15843;SDS011;50807;52.436;13.346;2023-08-07T00:35:03;1.90;;;1.70;;
15843;SDS011;50807;52.436;13.346;2023-08-07T00:35:35;2.00;;;1.80;;
15843;SDS011;50807;52.436;13.346;2023-08-07T00:36:07;1.48;;;1.38;;
15843;SDS011;50807;52.436;13.346;2023-08-07T00:36:38;1.67;;;1.57;;
15843;SDS011;50807;52.436;13.346;2023-08-07T00:37:09;1.70;;;1.60;;
15843;SDS011;50807;52.436;13.346;2023-08-07T00:37:40;2.30;;;2.10;;
15843;SDS011;50807;52.436;13.346;2023-08-07T00:38:12;1.88;;;1.65;;
15843;SDS011;50807;52.436;13.346;2023-08-07T00:38:43;1.70;;;1.60;;
15843;SDS011;50807;52.436;13.346;2023-08-07T00:39:14;1.98;;;1.75;;
15843;SDS011;50807;52.436;13.346;2023-08-07T00:39:44;1.80;;;1.70;;
15843;SDS011;50807;52.436;13.346;2023-08-07T00:40:17;2.30;;;1.70;;
15843;SDS011;50807;52.436;13.346;2023-08-07T00:40:49;1.75;;;1.65;;
15843;SDS011;50807;52.436;13.346;2023-08-07T00:41:20;2.27;;;1.90;;
15843;SDS011;50807;52.436;13.346;2023-08-07T00:41:51;1.67;;;1.57;;
15843;SDS011;50807;52.436;13.346;2023-08-07T00:42:22;2.27;;;1.80;;
15843;SDS011;50807;52.436;13.346;2023-08-07T00:42:53;1.80;;;1.65;;
15843;SDS011;50807;52.436;13.346;2023-08-07T00:43:24;1.80;;;1.70;;
15843;SDS011;50807;52.436;13.346;2023-08-07T00:43:55;2.00;;;1.80;;
15843;SDS011;50807;52.436;13.346;2023-08-07T00:44:26;1.57;;;1.40;;
15843;SDS011;50807;52.436;13.346;2023-08-07T00:44:58;3.83;;;2.00;;
15843;SDS011;50807;52.436;13.346;2023-08-07T00:45:28;2.30;;;2.10;;
15843;SDS011;50807;52.436;13.346;2023-08-07T00:46:00;2.22;;;1.65;;
15843;SDS011;50807;52.436;13.346;2023-08-07T00:46:32;2.10;;;2.00;;
15843;SDS011;50807;52.436;13.346;2023-08-07T00:47:05;1.92;;;1.83;;
15843;SDS011;50807;52.436;13.346;2023-08-07T00:47:36;2.47;;;1.80;;
15843;SDS011;50807;52.436;13.346;2023-08-07T00:48:08;2.75;;;1.80;;
15843;SDS011;50807;52.436;13.346;2023-08-07T00:48:40;1.63;;;1.52;;
15843;SDS011;50807;52.436;13.346;2023-08-07T00:49:11;1.90;;;1.80;;
15843;SDS011;50807;52.436;13.346;2023-08-07T00:49:43;2.55;;;1.77;;
15843;SDS011;50807;52.436;13.346;2023-08-07T00:50:14;1.87;;;1.77;;
15843;SDS011;50807;52.436;13.346;2023-08-07T00:50:45;2.13;;;1.93;;
15843;SDS011;50807;52.436;13.346;2023-08-07T00:51:19;3.90;;;1.85;;
15843;SDS011;50807;52.436;13.346;2023-08-07T00:51:51;1.90;;;1.80;;
15843;SDS011;50807;52.436;13.346;2023-08-07T00:52:23;2.50;;;1.90;;
15843;SDS011;50807;52.436;13.346;2023-08-07T00:52:53;2.33;;;1.80;;
15843;SDS011;50807;52.436;13.346;2023-08-07T00:53:25;3.00;;;1.80;;
15843;SDS011;50807;52.436;13.346;2023-08-07T00:53:57;2.53;;;1.52;;
15843;SDS011;50807;52.436;13.346;2023-08-07T00:54:30;2.23;;;2.03;;
15843;SDS011;50807;52.436;13.346;2023-08-07T00:55:03;1.97;;;1.87;;
15843;SDS011;50807;52.436;13.346;2023-08-07T00:55:36;2.45;;;2.00;;
15843;SDS011;50807;52.436;13.346;2023-08-07T00:56:08;3.35;;;2.00;;
15843;SDS011;50807;52.436;13.346;2023-08-07T00:56:39;2.58;;;2.00;;
15843;SDS011;50807;52.436;13.346;2023-08-07T00:57:10;3.25;;;2.15;;
15843;SDS011;50807;52.436;13.346;2023-08-07T00:57:45;2.10;;;1.90;;
15843;SDS011;50807;52.436;13.346;2023-08-07T00:58:16;2.10;;;1.90;;
15843;SDS011;50807;52.436;13.346;2023-08-07T00:58:48;4.40;;;1.70;;
15843;SDS011;50807;52.436;13.346;2023-08-07T00:59:20;1.88;;;1.70;;
15843;SDS011;50807;52.436;13.346;2023-08-07T00:59:51;2.10;;;1.90;;
15843;SDS011;50807;52.436;13.346;2023-08-07T01:00:24;1.70;;;1.60;;
15843;SDS011;50807;52.436;13.346;2023-08-07T01:00:55;1.87;;;1.60;;
15843;SDS011;50807;52.436;13.346;2023-08-07T01:01:27;3.08;;;2.00;;
15843;SDS011;50807;52.436;13.346;2023-08-07T01:01:58;2.07;;;1.97;;
15843;SDS011;50807;52.436;13.346;2023-08-07T01:02:30;1.70;;;1.60;;
15843;SDS011;50807;52.436;13.346;2023-08-07T01:03:01;1.90;;;1.80;;
15843;SDS011;50807;52.436;13.346;2023-08-07T01:03:36;2.17;;;2.00;;
15843;SDS011;50807;52.436;13.346;2023-08-07T01:04:07;2.42;;;2.22;;
15843;SDS011;50807;52.436;13.346;2023-08-07T01:04:39;2.00;;;1.80;;
15843;SDS011;50807;52.436;13.346;2023-08-07T01:05:10;1.90;;;1.80;;
15843;SDS011;50807;52.436;13.346;2023-08-07T01:05:41;2.17;;;1.97;;
15843;SDS011;50807;52.436;13.346;2023-08-07T01:06:12;1.90;;;1.80;;
15843;SDS011;50807;52.436;13.346;2023-08-07T01:06:44;1.92;;;1.80;;
15843;SDS011;50807;52.436;13.346;2023-08-07T01:07:15;2.07;;;1.80;;
15843;SDS011;50807;52.436;13.346;2023-08-07T01:07:46;1.70;;;1.60;;
15843;SDS011;50807;52.436;13.346;2023-08-07T01:08:18;2.33;;;1.73;;
15843;SDS011;50807;52.436;13.346;2023-08-07T01:08:50;2.37;;;1.93;;
15843;SDS011;50807;52.436;13.346;2023-08-07T01:09:21;2.33;;;1.77;;
15843;SDS011;50807;52.436;13.346;2023-08-07T01:09:52;2.00;;;1.90;;
15843;SDS011;50807;52.436;13.346;2023-08-07T01:10:25;1.67;;;1.58;;
15843;SDS011;50807;52.436;13.346;2023-08-07T01:11:15;2.30;;;2.10;;
15843;SDS011;50807;52.436;13.346;2023-08-07T01:11:55;1.80;;;1.70;;
15843;SDS011;50807;52.436;13.346;2023-08-07T01:12:36;2.43;;;1.80;;
15843;SDS011;50807;52.436;13.346;2023-08-07T01:13:20;1.73;;;1.63;;
15843;SDS011;50807;52.436;13.346;2023-08-07T01:14:00;2.15;;;1.90;;
15843;SDS011;50807;52.436;13.346;2023-08-07T01:14:40;3.05;;;1.75;;
15843;SDS011;50807;52.436;13.346;2023-08-07T01:15:23;1.70;;;1.58;;
15843;SDS011;50807;52.436;13.346;2023-08-07T01:16:01;1.80;;;1.60;;
15843;SDS011;50807;52.436;13.346;2023-08-07T01:16:41;1.73;;;1.63;;
15843;SDS011;50807;52.436;13.346;2023-08-07T01:17:20;2.15;;;1.70;;
15843;SDS011;50807;52.436;13.346;2023-08-07T01:17:53;1.98;;;1.80;;
15843;SDS011;50807;52.436;13.346;2023-08-07T01:18:25;2.00;;;1.80;;
15843;SDS011;50807;52.436;13.346;2023-08-07T01:18:57;1.70;;;1.60;;
15843;SDS011;50807;52.436;13.346;2023-08-07T01:19:33;1.90;;;1.70;;
15843;SDS011;50807;52.436;13.346;2023-08-07T01:20:05;1.88;;;1.77;;
15843;SDS011;50807;52.436;13.346;2023-08-07T01:20:38;1.70;;;1.60;;
15843;SDS011;50807;52.436;13.346;2023-08-07T01:21:16;2.23;;;2.07;;
15843;SDS011;50807;52.436;13.346;2023-08-07T01:21:54;2.28;;;2.03;;
15843;SDS011;50807;52.436;13.346;2023-08-07T01:22:35;2.10;;;1.90;;
15843;SDS011;50807;52.436;13.346;2023-08-07T01:23:05;2.23;;;1.80;;
15843;SDS011;50807;52.436;13.346;2023-08-07T01:23:36;2.10;;;1.90;;
15843;SDS011;50807;52.436;13.346;2023-08-07T01:24:08;2.05;;;1.67;;
15843;SDS011;50807;52.436;13.346;2023-08-07T01:24:39;2.58;;;1.80;;
15843;SDS011;50807;52.436;13.346;2023-08-07T01:25:12;2.10;;;1.90;;
15843;SDS011;50807;52.436;13.346;2023-08-07T01:25:43;3.17;;;1.93;;
15843;SDS011;50807;52.436;13.346;2023-08-07T01:26:17;2.95;;;2.00;;
15843;SDS011;50807;52.436;13.346;2023-08-07T01:26:50;2.63;;;1.70;;
15843;SDS011;50807;52.436;13.346;2023-08-07T01:27:28;2.08;;;1.88;;
15843;SDS011;50807;52.436;13.346;2023-08-07T01:28:09;2.33;;;1.97;;
15843;SDS011;50807;52.436;13.346;2023-08-07T01:28:52;2.53;;;2.07;;
15843;SDS011;50807;52.436;13.346;2023-08-07T01:29:31;1.70;;;1.60;;
15843;SDS011;50807;52.436;13.346;2023-08-07T01:30:12;2.10;;;1.87;;
15843;SDS011;50807;52.436;13.346;2023-08-07T01:30:52;2.40;;;1.83;;
15843;SDS011;50807;52.436;13.346;2023-08-07T01:31:30;2.25;;;1.92;;
15843;SDS011;50807;52.436;13.346;2023-08-07T01:32:06;1.97;;;1.77;;
15843;SDS011;50807;52.436;13.346;2023-08-07T01:32:46;2.00;;;1.83;;
15843;SDS011;50807;52.436;13.346;2023-08-07T01:33:27;1.88;;;1.77;;
15843;SDS011;50807;52.436;13.346;2023-08-07T01:34:04;1.88;;;1.77;;
15843;SDS011;50807;52.436;13.346;2023-08-07T01:34:38;2.58;;;1.83;;
15843;SDS011;50807;52.436;13.346;2023-08-07T01:35:12;3.25;;;2.00;;
15843;SDS011;50807;52.436;13.346;2023-08-07T01:35:47;2.97;;;2.10;;
15843;SDS011;50807;52.436;13.346;2023-08-07T01:36:24;2.22;;;2.03;;
15843;SDS011;50807;52.436;13.346;2023-08-07T01:37:00;2.00;;;1.80;;
15843;SDS011;50807;52.436;13.346;2023-08-07T01:37:33;2.40;;;1.90;;
15843;SDS011;50807;52.436;13.346;2023-08-07T01:38:10;2.10;;;2.00;;
15843;SDS011;50807;52.436;13.346;2023-08-07T01:38:44;3.10;;;1.70;;
15843;SDS011;50807;52.436;13.346;2023-08-07T01:39:19;2.55;;;2.30;;
15843;SDS011;50807;52.436;13.346;2023-08-07T01:39:52;2.35;;;2.17;;
15843;SDS011;50807;52.436;13.346;2023-08-07T01:40:25;2.03;;;1.83;;
15843;SDS011;50807;52.436;13.346;2023-08-07T01:40:58;2.40;;;1.88;;
15843;SDS011;50807;52.436;13.346;2023-08-07T01:41:31;3.30;;;1.95;;
15843;SDS011;50807;52.436;13.346;2023-08-07T01:42:05;2.67;;;2.17;;
15843;SDS011;50807;52.436;13.346;2023-08-07T01:42:37;2.33;;;1.87;;
15843;SDS011;50807;52.436;13.346;2023-08-07T01:43:09;3.20;;;2.47;;
15843;SDS011;50807;52.436;13.346;2023-08-07T01:43:40;1.40;;;1.30;;
15843;SDS011;50807;52.436;13.346;2023-08-07T01:44:11;2.35;;;2.08;;
15843;SDS011;50807;52.436;13.346;2023-08-07T01:44:43;3.40;;;2.25;;
15843;SDS011;50807;52.436;13.346;2023-08-07T01:45:21;2.10;;;2.00;;
15843;SDS011;50807;52.436;13.346;2023-08-07T01:45:53;2.08;;;1.98;;
15843;SDS011;50807;52.436;13.346;2023-08-07T01:46:24;2.87;;;2.40;;
15843;SDS011;50807;52.436;13.346;2023-08-07T01:46:55;2.47;;;2.27;;
15843;SDS011;50807;52.436;13.346;2023-08-07T01:47:27;2.40;;;2.20;;
15843;SDS011;50807;52.436;13.346;2023-08-07T01:47:58;2.80;;;2.40;;
15843;SDS011;50807;52.436;13.346;2023-08-07T01:48:29;5.35;;;2.85;;
15843;SDS011;50807;52.436;13.346;2023-08-07T01:49:01;3.33;;;3.03;;
15843;SDS011;50807;52.436;13.346;2023-08-07T01:49:32;3.30;;;3.00;;
15843;SDS011;50807;52.436;13.346;2023-08-07T01:50:03;3.53;;;3.28;;
15843;SDS011;50807;52.436;13.346;2023-08-07T01:50:35;3.83;;;3.40;;
15843;SDS011;50807;52.436;13.346;2023-08-07T01:51:07;3.60;;;3.30;;
15843;SDS011;50807;52.436;13.346;2023-08-07T01:51:38;3.20;;;3.00;;
15843;SDS011;50807;52.436;13.346;2023-08-07T01:52:10;3.50;;;3.20;;
15843;SDS011;50807;52.436;13.346;2023-08-07T01:52:42;5.20;;;3.45;;
15843;SDS011;50807;52.436;13.346;2023-08-07T01:53:14;3.80;;;3.50;;
15843;SDS011;50807;52.436;13.346;2023-08-07T01:53:45;4.40;;;4.00;;
15843;SDS011;50807;52.436;13.346;2023-08-07T01:54:17;4.35;;;3.95;;
15843;SDS011;50807;52.436;13.346;2023-08-07T01:54:49;3.72;;;3.42;;
15843;SDS011;50807;52.436;13.346;2023-08-07T01:55:20;3.80;;;3.50;;
15843;SDS011;50807;52.436;13.346;2023-08-07T01:55:53;6.10;;;3.50;;
15843;SDS011;50807;52.436;13.346;2023-08-07T01:56:24;4.53;;;4.13;;
15843;SDS011;50807;52.436;13.346;2023-08-07T01:56:56;4.00;;;3.70;;
15843;SDS011;50807;52.436;13.346;2023-08-07T01:57:27;4.37;;;4.07;;
15843;SDS011;50807;52.436;13.346;2023-08-07T01:57:58;4.13;;;3.73;;
15843;SDS011;50807;52.436;13.346;2023-08-07T01:58:29;4.03;;;3.63;;
15843;SDS011;50807;52.436;13.346;2023-08-07T01:59:00;4.10;;;3.80;;
15843;SDS011;50807;52.436;13.346;2023-08-07T01:59:31;4.80;;;3.80;;
15843;SDS011;50807;52.436;13.346;2023-08-07T02:00:02;3.60;;;3.40;;
15843;SDS011;50807;52.436;13.346;2023-08-07T02:00:35;3.50;;;3.20;;
15843;SDS011;50807;52.436;13.346;2023-08-07T02:01:05;4.10;;;3.70;;
15843;SDS011;50807;52.436;13.346;2023-08-07T02:01:36;3.80;;;3.50;;
15843;SDS011;50807;52.436;13.346;2023-08-07T02:02:08;3.42;;;3.13;;
15843;SDS011;50807;52.436;13.346;2023-08-07T02:02:39;3.47;;;3.20;;
15843;SDS011;50807;52.436;13.346;2023-08-07T02:03:10;3.53;;;3.23;;
15843;SDS011;50807;52.436;13.346;2023-08-07T02:03:41;3.07;;;2.87;;
15843;SDS011;50807;52.436;13.346;2023-08-07T02:04:12;3.70;;;3.35;;
15843;SDS011;50807;52.436;13.346;2023-08-07T02:04:43;3.53;;;3.23;;
15843;SDS011;50807;52.436;13.346;2023-08-07T02:05:15;3.90;;;2.70;;
15843;SDS011;50807;52.436;13.346;2023-08-07T02:05:46;3.35;;;2.88;;
15843;SDS011;50807;52.436;13.346;2023-08-07T02:06:18;6.07;;;3.17;;
15843;SDS011;50807;52.436;13.346;2023-08-07T02:06:49;3.27;;;2.97;;
15843;SDS011;50807;52.436;13.346;2023-08-07T02:07:21;2.83;;;2.63;;
15843;SDS011;50807;52.436;13.346;2023-08-07T02:07:52;2.80;;;2.60;;
15843;SDS011;50807;52.436;13.346;2023-08-07T02:08:26;2.60;;;2.40;;
15843;SDS011;50807;52.436;13.346;2023-08-07T02:08:57;2.70;;;2.50;;
15843;SDS011;50807;52.436;13.346;2023-08-07T02:09:28;3.23;;;2.60;;
15843;SDS011;50807;52.436;13.346;2023-08-07T02:09:59;2.53;;;2.33;;
15843;SDS011;50807;52.436;13.346;2023-08-07T02:10:30;2.58;;;2.38;;
15843;SDS011;50807;52.436;13.346;2023-08-07T02:11:01;2.70;;;2.50;;
15843;SDS011;50807;52.436;13.346;2023-08-07T02:11:32;2.67;;;2.42;;
15843;SDS011;50807;52.436;13.346;2023-08-07T02:12:05;2.55;;;2.35;;
15843;SDS011;50807;52.436;13.346;2023-08-07T02:12:36;2.55;;;2.35;;
15843;SDS011;50807;52.436;13.346;2023-08-07T02:13:07;4.05;;;2.97;;
15843;SDS011;50807;52.436;13.346;2023-08-07T02:13:38;3.93;;;2.40;;
15843;SDS011;50807;52.436;13.346;2023-08-07T02:14:10;2.15;;;2.00;;
15843;SDS011;50807;52.436;13.346;2023-08-07T02:14:41;2.47;;;2.27;;
15843;SDS011;50807;52.436;13.346;2023-08-07T02:15:12;2.58;;;2.38;;
15843;SDS011;50807;52.436;13.346;2023-08-07T02:15:44;3.28;;;2.45;;
15843;SDS011;50807;52.436;13.346;2023-08-07T02:16:15;2.20;;;2.10;;
15843;SDS011;50807;52.436;13.346;2023-08-07T02:16:47;2.90;;;2.70;;
15843;SDS011;50807;52.436;13.346;2023-08-07T02:17:19;3.73;;;2.73;;
15843;SDS011;50807;52.436;13.346;2023-08-07T02:17:51;2.70;;;2.50;;
15843;SDS011;50807;52.436;13.346;2023-08-07T02:18:22;2.40;;;2.20;;
15843;SDS011;50807;52.436;13.346;2023-08-07T02:18:53;2.75;;;2.55;;
15843;SDS011;50807;52.436;13.346;2023-08-07T02:19:24;2.70;;;2.50;;
15843;SDS011;50807;52.436;13.346;2023-08-07T02:19:55;3.37;;;2.87;;
15843;SDS011;50807;52.436;13.346;2023-08-07T02:20:26;2.42;;;2.22;;
15843;SDS011;50807;52.436;13.346;2023-08-07T02:20:58;2.58;;;2.15;;
15843;SDS011;50807;52.436;13.346;2023-08-07T02:21:29;3.63;;;2.20;;
15843;SDS011;50807;52.436;13.346;2023-08-07T02:22:00;2.53;;;2.33;;
15843;SDS011;50807;52.436;13.346;2023-08-07T02:22:32;2.55;;;2.35;;
15843;SDS011;50807;52.436;13.346;2023-08-07T02:23:04;3.75;;;2.67;;
15843;SDS011;50807;52.436;13.346;2023-08-07T02:23:35;2.60;;;2.37;;
15843;SDS011;50807;52.436;13.346;2023-08-07T02:24:06;5.47;;;2.70;;
15843;SDS011;50807;52.436;13.346;2023-08-07T02:24:37;2.57;;;2.37;;
15843;SDS011;50807;52.436;13.346;2023-08-07T02:25:08;3.38;;;2.63;;
15843;SDS011;50807;52.436;13.346;2023-08-07T02:25:39;2.87;;;2.40;;
15843;SDS011;50807;52.436;13.346;2023-08-07T02:26:10;4.13;;;2.23;;
15843;SDS011;50807;52.436;13.346;2023-08-07T02:26:42;2.30;;;2.10;;
15843;SDS011;50807;52.436;13.346;2023-08-07T02:27:13;2.57;;;2.37;;
15843;SDS011;50807;52.436;13.346;2023-08-07T02:27:43;2.40;;;2.20;;
15843;SDS011;50807;52.436;13.346;2023-08-07T02:28:15;2.65;;;2.38;;
15843;SDS011;50807;52.436;13.346;2023-08-07T02:28:46;3.07;;;2.40;;
15843;SDS011;50807;52.436;13.346;2023-08-07T02:29:17;4.70;;;2.40;;
15843;SDS011;50807;52.436;13.346;2023-08-07T02:29:48;2.53;;;2.33;;
15843;SDS011;50807;52.436;13.346;2023-08-07T02:30:20;3.33;;;2.28;;
15843;SDS011;50807;52.436;13.346;2023-08-07T02:30:52;2.70;;;2.40;;
15843;SDS011;50807;52.436;13.346;2023-08-07T02:31:24;2.80;;;2.25;;
15843;SDS011;50807;52.436;13.346;2023-08-07T02:31:57;2.55;;;2.35;;
15843;SDS011;50807;52.436;13.346;2023-08-07T02:32:28;2.30;;;2.10;;
15843;SDS011;50807;52.436;13.346;2023-08-07T02:32:59;2.58;;;2.38;;
15843;SDS011;50807;52.436;13.346;2023-08-07T02:33:30;2.47;;;2.20;;
15843;SDS011;50807;52.436;13.346;2023-08-07T02:34:02;2.65;;;2.45;;
15843;SDS011;50807;52.436;13.346;2023-08-07T02:34:33;2.83;;;2.60;;
15843;SDS011;50807;52.436;13.346;2023-08-07T02:35:05;2.58;;;2.35;;
15843;SDS011;50807;52.436;13.346;2023-08-07T02:35:37;2.70;;;2.50;;
15843;SDS011;50807;52.436;13.346;2023-08-07T02:36:07;3.53;;;2.80;;
15843;SDS011;50807;52.436;13.346;2023-08-07T02:36:39;2.50;;;2.30;;
15843;SDS011;50807;52.436;13.346;2023-08-07T02:37:10;3.30;;;2.40;;
15843;SDS011;50807;52.436;13.346;2023-08-07T02:37:42;2.40;;;2.20;;
15843;SDS011;50807;52.436;13.346;2023-08-07T02:38:14;2.70;;;2.50;;
15843;SDS011;50807;52.436;13.346;2023-08-07T02:38:45;2.80;;;2.60;;
15843;SDS011;50807;52.436;13.346;2023-08-07T02:39:16;2.60;;;2.40;;
15843;SDS011;50807;52.436;13.346;2023-08-07T02:39:47;3.77;;;2.37;;
15843;SDS011;50807;52.436;13.346;2023-08-07T02:40:18;2.70;;;2.50;;
15843;SDS011;50807;52.436;13.346;2023-08-07T02:40:50;2.83;;;2.33;;
15843;SDS011;50807;52.436;13.346;2023-08-07T02:41:21;2.87;;;2.53;;
15843;SDS011;50807;52.436;13.346;2023-08-07T02:41:51;2.83;;;2.40;;
15843;SDS011;50807;52.436;13.346;2023-08-07T02:42:22;2.70;;;2.50;;
15843;SDS011;50807;52.436;13.346;2023-08-07T02:42:54;4.10;;;2.95;;
15843;SDS011;50807;52.436;13.346;2023-08-07T02:43:25;2.57;;;2.33;;
15843;SDS011;50807;52.436;13.346;2023-08-07T02:43:56;2.67;;;2.30;;
15843;SDS011;50807;52.436;13.346;2023-08-07T02:44:27;2.92;;;2.72;;
15843;SDS011;50807;52.436;13.346;2023-08-07T02:44:59;2.88;;;2.67;;
15843;SDS011;50807;52.436;13.346;2023-08-07T02:45:30;2.80;;;2.60;;
15843;SDS011;50807;52.436;13.346;2023-08-07T02:46:01;3.00;;;2.70;;
15843;SDS011;50807;52.436;13.346;2023-08-07T02:46:31;2.90;;;2.60;;
15843;SDS011;50807;52.436;13.346;2023-08-07T02:47:06;3.17;;;2.50;;
15843;SDS011;50807;52.436;13.346;2023-08-07T02:47:37;2.88;;;2.67;;
15843;SDS011;50807;52.436;13.346;2023-08-07T02:48:08;2.53;;;2.30;;
15843;SDS011;50807;52.436;13.346;2023-08-07T02:48:40;3.35;;;2.40;;
15843;SDS011;50807;52.436;13.346;2023-08-07T02:49:10;2.63;;;2.43;;
15843;SDS011;50807;52.436;13.346;2023-08-07T02:49:41;2.97;;;2.70;;
15843;SDS011;50807;52.436;13.346;2023-08-07T02:50:13;4.13;;;2.67;;
15843;SDS011;50807;52.436;13.346;2023-08-07T02:50:44;3.17;;;2.63;;
15843;SDS011;50807;52.436;13.346;2023-08-07T02:51:15;2.40;;;2.17;;
15843;SDS011;50807;52.436;13.346;2023-08-07T02:51:46;2.70;;;2.50;;
15843;SDS011;50807;52.436;13.346;2023-08-07T02:52:18;2.70;;;2.50;;
15843;SDS011;50807;52.436;13.346;2023-08-07T02:52:50;3.57;;;2.50;;
15843;SDS011;50807;52.436;13.346;2023-08-07T02:53:21;4.75;;;2.78;;
15843;SDS011;50807;52.436;13.346;2023-08-07T02:53:52;2.67;;;2.47;;
15843;SDS011;50807;52.436;13.346;2023-08-07T02:54:24;2.50;;;2.30;;
15843;SDS011;50807;52.436;13.346;2023-08-07T02:54:54;4.73;;;2.67;;
15843;SDS011;50807;52.436;13.346;2023-08-07T02:55:25;2.77;;;2.57;;
15843;SDS011;50807;52.436;13.346;2023-08-07T02:55:56;3.07;;;2.57;;
15843;SDS011;50807;52.436;13.346;2023-08-07T02:56:28;2.75;;;2.30;;
15843;SDS011;50807;52.436;13.346;2023-08-07T02:56:59;2.60;;;2.40;;
15843;SDS011;50807;52.436;13.346;2023-08-07T02:57:29;2.33;;;2.13;;
15843;SDS011;50807;52.436;13.346;2023-08-07T02:58:00;2.90;;;2.60;;
15843;SDS011;50807;52.436;13.346;2023-08-07T02:58:32;3.13;;;2.38;;
15843;SDS011;50807;52.436;13.346;2023-08-07T02:59:03;3.23;;;2.30;;
15843;SDS011;50807;52.436;13.346;2023-08-07T02:59:34;3.13;;;2.75;;
15843;SDS011;50807;52.436;13.346;2023-08-07T03:00:07;3.03;;;2.75;;
15843;SDS011;50807;52.436;13.346;2023-08-07T03:00:39;3.58;;;2.92;;
15843;SDS011;50807;52.436;13.346;2023-08-07T03:01:09;2.77;;;2.47;;
15843;SDS011;50807;52.436;13.346;2023-08-07T03:01:41;3.40;;;3.10;;
15843;SDS011;50807;52.436;13.346;2023-08-07T03:02:14;3.38;;;3.08;;
15843;SDS011;50807;52.436;13.346;2023-08-07T03:02:45;3.50;;;3.00;;
15843;SDS011;50807;52.436;13.346;2023-08-07T03:03:16;3.97;;;3.07;;
15843;SDS011;50807;52.436;13.346;2023-08-07T03:03:47;3.67;;;3.37;;
15843;SDS011;50807;52.436;13.346;2023-08-07T03:04:19;2.88;;;2.67;;
15843;SDS011;50807;52.436;13.346;2023-08-07T03:04:49;3.37;;;2.57;;
15843;SDS011;50807;52.436;13.346;2023-08-07T03:05:20;3.57;;;3.00;;
15843;SDS011;50807;52.436;13.346;2023-08-07T03:05:52;2.63;;;2.42;;
15843;SDS011;50807;52.436;13.346;2023-08-07T03:06:23;2.87;;;2.67;;
15843;SDS011;50807;52.436;13.346;2023-08-07T03:06:54;3.33;;;2.97;;
15843;SDS011;50807;52.436;13.346;2023-08-07T03:07:25;3.10;;;2.90;;
15843;SDS011;50807;52.436;13.346;2023-08-07T03:07:58;2.72;;;2.53;;
15843;SDS011;50807;52.436;13.346;2023-08-07T03:08:28;3.50;;;2.80;;
15843;SDS011;50807;52.436;13.346;2023-08-07T03:08:59;2.80;;;2.60;;
15843;SDS011;50807;52.436;13.346;2023-08-07T03:09:30;3.80;;;2.53;;
15843;SDS011;50807;52.436;13.346;2023-08-07T03:10:01;3.40;;;3.10;;
15843;SDS011;50807;52.436;13.346;2023-08-07T03:10:33;2.97;;;2.67;;
15843;SDS011;50807;52.436;13.346;2023-08-07T03:11:04;2.87;;;2.57;;